Seaside, OR

3:42 PM PST on January 22, 2017 (GMT -0800)
ELKRIDGE | | Change Station
Active Advisory: Gale Warning

Elev 75 ft 46.00 °N, 123.91 °W | Updated 24 seconds ago

Rain
Rain
45.7 °F
Feels Like 43 °F
N
6.0
Wind Variable Wind from SSE

Today
High -- | Low -- °F
--% Chance of Precip.
Yesterday
High -- | Low -- °F
Precip. -- in
Pressure 29.48 in
Visibility 10.0 miles
Clouds Few 4900 ft
Mostly Cloudy 6500 ft
Overcast 8000 ft
Windchill 43 °F
Dew Point 37 °F
Humidity 74%
Rainfall 0.02 in
Snow Depth Not available.
7:48 AM 5:07 PM
Waning Crescent, 23% visible
METAR KAST 222255Z AUTO 17005G14KT 10SM FEW049 BKN065 OVC080 10/01 A2947 RMK AO2 SLP981 T01000011
Pressure 29.48 in
Visibility 10.0 miles
Clouds Few 4900 ft
Mostly Cloudy 6500 ft
Overcast 8000 ft
Windchill 43 °F
Dew Point 37 °F
Humidity 74%
Rainfall 0.02 in
Snow Depth Not available.
7:48 AM 5:07 PM
Waning Crescent, 23% visible
METAR KAST 222255Z AUTO 17005G14KT 10SM FEW049 BKN065 OVC080 10/01 A2947 RMK AO2 SLP981 T01000011

Get Your Daily Forecast Email!

Thanks for signing up!

Be on the lookout for a verification email in your inbox.

You'll start receiving the daily forecast at 8 AM.

×

10-Day Weather Forecast

Almanac

Astronomy

Jan. 22, 2017 Rise Set
Actual Time
Civil Twilight
Nautical Twilight
Astronomical Twilight
Moon
Length of Visible Light
Length of Day
Tomorrow will be .
, % of the Moon is Illuminated

Today's Extremes

State Highs State Lows

Community

WunderPhotos

Upload Photos

1,962,540 photos uploaded!

WunderBlog® & News

Nearby

Air Quality

  Air Quality AQ Index Pollutant
Not available.

Snow Depth

Station Depth Elevation

Earthquake Activity

City Distance Mag. Time & Date
Minimum magnitude displayed is 2.5.

Coastal Water Temperatures

Place Temperature

Stations

Nearby Weather Stations

Station Location Temp. Windchill Dew Point Humidity Wind Precip. Elev Updated Type
                   

Watches & Warnings

Gale Warning
Issued: 2:19 PM PST Jan. 22, 2017 – National Weather Service

... Gale Warning remains in effect until 10 PM PST this evening...

* winds... south to southeast 20 to 30 kt with gusts to 45 kt.

Precautionary/preparedness actions...

A Gale Warning means winds of 34 to 47 knots are imminent or
occurring. Operating a vessel in gale conditions requires
experience and properly equipped vessels. It is highly
recommended that mariners without the proper experience seek safe
Harbor prior to the onset of gale conditions.